CheckWX is a tool to help pilots better visualize weather data.  It is not intended as a substitute for an official pre-flight weather briefing.

16:38:45 UTC

DNMN METAR
Minna Airport
Minna, Nigeria
Current

11 hours ago

DNMN 220600Z 22007KT 9999 FEW010 25/23 Q1009
Observed
Jul-22 @ 06:00 UTC
Wind
  • 220° at 7 KTS
Visibility
10,000+ meters
Flight Rules
VFR
Cloud Levels
  • Few at 1,000' AGL
Temperature
25°C / 77°F
Dewpoint
23°C / 73°F
Humidity
89%
Altimeter
29.79" Hg
Pressure
1008.92 hPa
Previous

12 hours ago

DNMN 220500Z 12006KT 9999 FEW010 25/24 Q1009
Observed
Jul-22 @ 05:00 UTC
Wind
  • 120° at 6 KTS
Visibility
10,000+ meters
Flight Rules
VFR
Cloud Levels
  • Few at 1,000' AGL
Temperature
25°C / 77°F
Dewpoint
24°C / 75°F
Humidity
94%
Altimeter
29.79" Hg
Pressure
1008.92 hPa
Previous

15 hours ago

DNMN 220200Z VRB02KT CAVOK 26/24 Q1009
Observed
Jul-22 @ 02:00 UTC
Wind
  • Variable at 2 KTS
Visibility
10,000+ meters
Flight Rules
VFR
Cloud Levels
  • Clear skies
Temperature
26°C / 79°F
Dewpoint
24°C / 75°F
Humidity
89%
Altimeter
29.79" Hg
Pressure
1008.92 hPa